sensor_id;sensor_type;location;lat;lon;timestamp;temperature;humidity
12289;DHT22;6207;49.308;7.336;2022-08-04T00:00:53;20.50;99.90
12289;DHT22;6207;49.308;7.336;2022-08-04T00:03:23;20.50;99.90
12289;DHT22;6207;49.308;7.336;2022-08-04T00:06:02;20.40;99.90
12289;DHT22;6207;49.308;7.336;2022-08-04T00:08:49;20.40;99.90
12289;DHT22;6207;49.308;7.336;2022-08-04T00:11:22;20.40;99.90
12289;DHT22;6207;49.308;7.336;2022-08-04T00:14:13;20.50;99.90
12289;DHT22;6207;49.308;7.336;2022-08-04T00:16:42;20.40;99.90
12289;DHT22;6207;49.308;7.336;2022-08-04T00:19:26;20.60;99.90
12289;DHT22;6207;49.308;7.336;2022-08-04T00:22:03;20.40;99.90
12289;DHT22;6207;49.308;7.336;2022-08-04T00:24:33;20.40;99.90
12289;DHT22;6207;49.308;7.336;2022-08-04T00:27:01;20.30;99.90
12289;DHT22;6207;49.308;7.336;2022-08-04T00:29:31;20.40;99.90
12289;DHT22;6207;49.308;7.336;2022-08-04T00:32:02;20.30;99.90
12289;DHT22;6207;49.308;7.336;2022-08-04T00:35:00;20.20;99.90
12289;DHT22;6207;49.308;7.336;2022-08-04T00:37:27;20.10;99.90
12289;DHT22;6207;49.308;7.336;2022-08-04T00:39:55;20.00;99.90
12289;DHT22;6207;49.308;7.336;2022-08-04T00:42:46;20.10;99.90
12289;DHT22;6207;49.308;7.336;2022-08-04T00:52:05;19.90;99.90
12289;DHT22;6207;49.308;7.336;2022-08-04T01:00:12;19.90;99.90
12289;DHT22;6207;49.308;7.336;2022-08-04T01:03:17;19.80;99.90
12289;DHT22;6207;49.308;7.336;2022-08-04T01:08:54;19.80;99.90
12289;DHT22;6207;49.308;7.336;2022-08-04T01:18:07;19.60;99.90
12289;DHT22;6207;49.308;7.336;2022-08-04T01:20:08;19.60;99.90
12289;DHT22;6207;49.308;7.336;2022-08-04T01:33:51;19.50;99.90
12289;DHT22;6207;49.308;7.336;2022-08-04T01:36:32;19.40;99.90
12289;DHT22;6207;49.308;7.336;2022-08-04T01:39:01;19.30;99.90
12289;DHT22;6207;49.308;7.336;2022-08-04T01:41:50;19.30;99.90
12289;DHT22;6207;49.308;7.336;2022-08-04T01:44:27;19.30;99.90
12289;DHT22;6207;49.308;7.336;2022-08-04T01:46:55;19.40;99.90
12289;DHT22;6207;49.308;7.336;2022-08-04T01:49:28;19.20;99.90
12289;DHT22;6207;49.308;7.336;2022-08-04T01:52:07;19.20;99.90
12289;DHT22;6207;49.308;7.336;2022-08-04T01:54:37;19.20;99.90
12289;DHT22;6207;49.308;7.336;2022-08-04T01:57:05;19.10;99.90
12289;DHT22;6207;49.308;7.336;2022-08-04T01:59:52;19.20;99.90
12289;DHT22;6207;49.308;7.336;2022-08-04T02:02:22;19.10;99.90
12289;DHT22;6207;49.308;7.336;2022-08-04T02:04:50;19.10;99.90
12289;DHT22;6207;49.308;7.336;2022-08-04T02:10:22;19.10;99.90
12289;DHT22;6207;49.308;7.336;2022-08-04T02:18:23;19.00;99.90
12289;DHT22;6207;49.308;7.336;2022-08-04T02:21:03;18.90;99.90
12289;DHT22;6207;49.308;7.336;2022-08-04T02:23:40;18.80;99.90
12289;DHT22;6207;49.308;7.336;2022-08-04T02:26:16;18.90;99.90
12289;DHT22;6207;49.308;7.336;2022-08-04T02:28:59;18.80;99.90
12289;DHT22;6207;49.308;7.336;2022-08-04T02:36:51;18.70;99.90
12289;DHT22;6207;49.308;7.336;2022-08-04T02:39:19;18.70;99.90
12289;DHT22;6207;49.308;7.336;2022-08-04T02:41:48;18.70;99.90
12289;DHT22;6207;49.308;7.336;2022-08-04T02:44:22;18.60;99.90
12289;DHT22;6207;49.308;7.336;2022-08-04T02:46:51;18.70;99.90
12289;DHT22;6207;49.308;7.336;2022-08-04T02:49:18;18.60;99.90
12289;DHT22;6207;49.308;7.336;2022-08-04T02:51:55;18.70;99.90
12289;DHT22;6207;49.308;7.336;2022-08-04T02:54:39;18.60;99.90
12289;DHT22;6207;49.308;7.336;2022-08-04T02:57:11;18.50;99.90
12289;DHT22;6207;49.308;7.336;2022-08-04T03:00:03;18.50;99.90
12289;DHT22;6207;49.308;7.336;2022-08-04T03:03:15;18.50;99.90
12289;DHT22;6207;49.308;7.336;2022-08-04T03:09:10;18.50;99.90
12289;DHT22;6207;49.308;7.336;2022-08-04T03:43:10;17.90;99.90
12289;DHT22;6207;49.308;7.336;2022-08-04T03:52:05;17.80;99.90
12289;DHT22;6207;49.308;7.336;2022-08-04T04:00:47;17.70;99.90
12289;DHT22;6207;49.308;7.336;2022-08-04T04:06:42;17.70;99.90
12289;DHT22;6207;49.308;7.336;2022-08-04T04:17:50;17.70;99.90
12289;DHT22;6207;49.308;7.336;2022-08-04T04:23:13;17.70;99.90
12289;DHT22;6207;49.308;7.336;2022-08-04T04:34:34;17.70;99.90
12289;DHT22;6207;49.308;7.336;2022-08-04T04:43:10;17.90;99.90
12289;DHT22;6207;49.308;7.336;2022-08-04T04:48:45;18.00;99.90
12289;DHT22;6207;49.308;7.336;2022-08-04T04:51:27;18.00;99.90
12289;DHT22;6207;49.308;7.336;2022-08-04T04:54:12;18.10;99.90
12289;DHT22;6207;49.308;7.336;2022-08-04T04:56:44;18.10;99.90
12289;DHT22;6207;49.308;7.336;2022-08-04T04:59:15;18.20;99.90
12289;DHT22;6207;49.308;7.336;2022-08-04T05:05:05;18.20;99.90
12289;DHT22;6207;49.308;7.336;2022-08-04T05:13:53;18.40;99.90
12289;DHT22;6207;49.308;7.336;2022-08-04T05:17:02;18.50;99.90
12289;DHT22;6207;49.308;7.336;2022-08-04T05:22:47;18.80;99.90
12289;DHT22;6207;49.308;7.336;2022-08-04T05:25:24;18.90;99.90
12289;DHT22;6207;49.308;7.336;2022-08-04T05:30:34;19.20;99.90
12289;DHT22;6207;49.308;7.336;2022-08-04T05:33:06;19.20;99.90
12289;DHT22;6207;49.308;7.336;2022-08-04T05:35:42;19.60;99.90
12289;DHT22;6207;49.308;7.336;2022-08-04T05:38:34;19.80;99.90
12289;DHT22;6207;49.308;7.336;2022-08-04T05:41:01;20.10;99.90
12289;DHT22;6207;49.308;7.336;2022-08-04T05:43:29;20.40;99.90
12289;DHT22;6207;49.308;7.336;2022-08-04T05:45:57;20.90;99.90
12289;DHT22;6207;49.308;7.336;2022-08-04T05:48:26;22.20;99.90
12289;DHT22;6207;49.308;7.336;2022-08-04T05:50:54;23.40;99.90
12289;DHT22;6207;49.308;7.336;2022-08-04T05:53:27;24.50;99.90
12289;DHT22;6207;49.308;7.336;2022-08-04T05:55:55;25.20;99.90
12289;DHT22;6207;49.308;7.336;2022-08-04T05:58:27;26.30;99.90
12289;DHT22;6207;49.308;7.336;2022-08-04T06:00:57;26.80;99.90
12289;DHT22;6207;49.308;7.336;2022-08-04T06:03:26;27.00;99.90
12289;DHT22;6207;49.308;7.336;2022-08-04T06:05:56;25.80;99.90
12289;DHT22;6207;49.308;7.336;2022-08-04T06:08:24;26.00;99.90
12289;DHT22;6207;49.308;7.336;2022-08-04T06:10:52;25.90;99.90
12289;DHT22;6207;49.308;7.336;2022-08-04T06:13:26;27.80;99.90
12289;DHT22;6207;49.308;7.336;2022-08-04T06:16:17;29.00;99.90
12289;DHT22;6207;49.308;7.336;2022-08-04T06:19:06;30.20;99.90
12289;DHT22;6207;49.308;7.336;2022-08-04T06:21:55;31.10;99.90
12289;DHT22;6207;49.308;7.336;2022-08-04T06:24:26;31.30;99.90
12289;DHT22;6207;49.308;7.336;2022-08-04T06:26:54;31.70;99.90
12289;DHT22;6207;49.308;7.336;2022-08-04T06:29:22;32.00;99.90
12289;DHT22;6207;49.308;7.336;2022-08-04T06:31:58;31.90;99.90
12289;DHT22;6207;49.308;7.336;2022-08-04T06:34:51;32.20;99.90
12289;DHT22;6207;49.308;7.336;2022-08-04T06:37:19;31.70;99.90
12289;DHT22;6207;49.308;7.336;2022-08-04T06:40:07;30.70;99.90
12289;DHT22;6207;49.308;7.336;2022-08-04T06:42:55;31.00;99.90
12289;DHT22;6207;49.308;7.336;2022-08-04T06:45:23;30.90;99.90
12289;DHT22;6207;49.308;7.336;2022-08-04T06:47:50;31.30;99.90
12289;DHT22;6207;49.308;7.336;2022-08-04T06:50:19;30.60;99.90
12289;DHT22;6207;49.308;7.336;2022-08-04T06:53:06;29.90;99.90
12289;DHT22;6207;49.308;7.336;2022-08-04T06:55:33;30.00;99.90
12289;DHT22;6207;49.308;7.336;2022-08-04T06:58:01;31.10;99.90
12289;DHT22;6207;49.308;7.336;2022-08-04T07:00:30;30.70;99.90
12289;DHT22;6207;49.308;7.336;2022-08-04T07:02:58;29.20;99.90
12289;DHT22;6207;49.308;7.336;2022-08-04T07:05:25;29.10;99.90
12289;DHT22;6207;49.308;7.336;2022-08-04T07:07:52;30.90;99.90
12289;DHT22;6207;49.308;7.336;2022-08-04T07:10:26;32.50;99.90
12289;DHT22;6207;49.308;7.336;2022-08-04T07:12:55;32.50;99.90
12289;DHT22;6207;49.308;7.336;2022-08-04T07:15:24;32.40;99.90
12289;DHT22;6207;49.308;7.336;2022-08-04T07:17:53;33.10;99.90
12289;DHT22;6207;49.308;7.336;2022-08-04T07:20:20;33.90;99.90
12289;DHT22;6207;49.308;7.336;2022-08-04T07:23:04;34.80;99.90
12289;DHT22;6207;49.308;7.336;2022-08-04T07:25:36;34.30;99.90
12289;DHT22;6207;49.308;7.336;2022-08-04T07:28:25;35.00;99.90
12289;DHT22;6207;49.308;7.336;2022-08-04T07:30:54;35.20;99.90
12289;DHT22;6207;49.308;7.336;2022-08-04T07:33:23;35.30;99.90
12289;DHT22;6207;49.308;7.336;2022-08-04T07:35:54;36.20;99.90
12289;DHT22;6207;49.308;7.336;2022-08-04T07:38:40;36.40;99.90
12289;DHT22;6207;49.308;7.336;2022-08-04T07:41:21;37.10;99.90
12289;DHT22;6207;49.308;7.336;2022-08-04T07:44:06;35.60;99.90
12289;DHT22;6207;49.308;7.336;2022-08-04T07:46:34;33.80;99.90
12289;DHT22;6207;49.308;7.336;2022-08-04T07:49:01;32.40;99.90
12289;DHT22;6207;49.308;7.336;2022-08-04T07:51:30;31.20;99.90
12289;DHT22;6207;49.308;7.336;2022-08-04T07:53:57;30.40;99.90
12289;DHT22;6207;49.308;7.336;2022-08-04T07:56:26;29.80;99.90
12289;DHT22;6207;49.308;7.336;2022-08-04T07:58:54;29.20;99.90
12289;DHT22;6207;49.308;7.336;2022-08-04T08:01:22;29.50;99.90
12289;DHT22;6207;49.308;7.336;2022-08-04T08:03:52;29.50;99.90
12289;DHT22;6207;49.308;7.336;2022-08-04T08:06:20;29.50;99.90
12289;DHT22;6207;49.308;7.336;2022-08-04T08:09:05;29.20;99.90
12289;DHT22;6207;49.308;7.336;2022-08-04T08:11:41;29.30;99.90
12289;DHT22;6207;49.308;7.336;2022-08-04T08:14:29;28.90;99.90
12289;DHT22;6207;49.308;7.336;2022-08-04T08:16:58;29.10;99.90
12289;DHT22;6207;49.308;7.336;2022-08-04T08:19:25;29.30;99.90
12289;DHT22;6207;49.308;7.336;2022-08-04T08:21:52;29.30;99.90
12289;DHT22;6207;49.308;7.336;2022-08-04T08:24:26;29.70;99.90
12289;DHT22;6207;49.308;7.336;2022-08-04T08:26:53;29.80;99.90
12289;DHT22;6207;49.308;7.336;2022-08-04T08:29:22;29.90;99.90
12289;DHT22;6207;49.308;7.336;2022-08-04T08:31:49;30.00;99.90
12289;DHT22;6207;49.308;7.336;2022-08-04T08:34:24;30.10;99.90
12289;DHT22;6207;49.308;7.336;2022-08-04T08:40:25;30.10;99.90
12289;DHT22;6207;49.308;7.336;2022-08-04T08:46:32;29.60;99.90
12289;DHT22;6207;49.308;7.336;2022-08-04T08:52:54;29.70;99.90
12289;DHT22;6207;49.308;7.336;2022-08-04T08:55:35;30.20;99.90
12289;DHT22;6207;49.308;7.336;2022-08-04T08:58:15;30.30;99.90
12289;DHT22;6207;49.308;7.336;2022-08-04T09:04:04;30.50;99.90
12289;DHT22;6207;49.308;7.336;2022-08-04T09:06:56;30.90;99.90
12289;DHT22;6207;49.308;7.336;2022-08-04T09:14:59;31.50;99.90
12289;DHT22;6207;49.308;7.336;2022-08-04T09:17:39;31.90;99.90
12289;DHT22;6207;49.308;7.336;2022-08-04T09:26:05;31.90;99.90
12289;DHT22;6207;49.308;7.336;2022-08-04T09:28:52;31.90;99.90
12289;DHT22;6207;49.308;7.336;2022-08-04T09:31:30;32.00;99.90
12289;DHT22;6207;49.308;7.336;2022-08-04T09:34:29;32.10;99.90
12289;DHT22;6207;49.308;7.336;2022-08-04T09:37:11;32.10;99.90
12289;DHT22;6207;49.308;7.336;2022-08-04T09:49:11;33.10;99.90
12289;DHT22;6207;49.308;7.336;2022-08-04T09:57:27;36.90;99.90
12289;DHT22;6207;49.308;7.336;2022-08-04T10:00:07;35.20;99.90
12289;DHT22;6207;49.308;7.336;2022-08-04T10:02:40;33.90;99.90
12289;DHT22;6207;49.308;7.336;2022-08-04T10:05:12;33.50;99.90
12289;DHT22;6207;49.308;7.336;2022-08-04T10:08:22;34.70;99.90
12289;DHT22;6207;49.308;7.336;2022-08-04T10:23:22;35.30;99.90
12289;DHT22;6207;49.308;7.336;2022-08-04T10:26:23;34.90;99.90
12289;DHT22;6207;49.308;7.336;2022-08-04T10:29:17;34.80;99.90
12289;DHT22;6207;49.308;7.336;2022-08-04T10:31:52;34.40;99.90
12289;DHT22;6207;49.308;7.336;2022-08-04T10:34:23;34.70;99.90
12289;DHT22;6207;49.308;7.336;2022-08-04T10:37:04;34.70;99.90
12289;DHT22;6207;49.308;7.336;2022-08-04T10:43:10;34.70;99.90
12289;DHT22;6207;49.308;7.336;2022-08-04T10:46:00;34.90;99.90
12289;DHT22;6207;49.308;7.336;2022-08-04T10:51:49;34.50;99.90
12289;DHT22;6207;49.308;7.336;2022-08-04T10:57:38;34.60;99.90
12289;DHT22;6207;49.308;7.336;2022-08-04T11:00:08;34.70;99.90
12289;DHT22;6207;49.308;7.336;2022-08-04T11:05:36;34.80;99.90
12289;DHT22;6207;49.308;7.336;2022-08-04T11:08:31;34.60;99.90
12289;DHT22;6207;49.308;7.336;2022-08-04T11:14:12;35.10;99.90
12289;DHT22;6207;49.308;7.336;2022-08-04T11:19:41;35.20;99.90
12289;DHT22;6207;49.308;7.336;2022-08-04T11:27:36;35.30;99.90
12289;DHT22;6207;49.308;7.336;2022-08-04T11:30:08;35.70;99.90
12289;DHT22;6207;49.308;7.336;2022-08-04T11:32:51;35.50;99.90
12289;DHT22;6207;49.308;7.336;2022-08-04T11:41:25;35.20;99.90
12289;DHT22;6207;49.308;7.336;2022-08-04T11:43:57;35.20;99.90
12289;DHT22;6207;49.308;7.336;2022-08-04T11:46:42;34.70;99.90
12289;DHT22;6207;49.308;7.336;2022-08-04T11:51:43;34.80;99.90
12289;DHT22;6207;49.308;7.336;2022-08-04T11:54:11;34.80;99.90
12289;DHT22;6207;49.308;7.336;2022-08-04T11:56:39;34.90;99.90
12289;DHT22;6207;49.308;7.336;2022-08-04T11:59:06;35.40;99.90
12289;DHT22;6207;49.308;7.336;2022-08-04T12:04:55;35.40;99.90
12289;DHT22;6207;49.308;7.336;2022-08-04T12:07:40;35.80;99.90
12289;DHT22;6207;49.308;7.336;2022-08-04T12:16:02;35.40;99.90
12289;DHT22;6207;49.308;7.336;2022-08-04T12:18:37;35.50;99.90
12289;DHT22;6207;49.308;7.336;2022-08-04T12:21:31;35.70;99.90
12289;DHT22;6207;49.308;7.336;2022-08-04T12:24:26;35.20;99.90
12289;DHT22;6207;49.308;7.336;2022-08-04T12:26:58;35.30;99.90
12289;DHT22;6207;49.308;7.336;2022-08-04T12:29:33;35.30;99.90
12289;DHT22;6207;49.308;7.336;2022-08-04T12:35:08;35.30;99.90
12289;DHT22;6207;49.308;7.336;2022-08-04T12:37:47;35.50;99.90
12289;DHT22;6207;49.308;7.336;2022-08-04T12:40:25;35.30;99.90
12289;DHT22;6207;49.308;7.336;2022-08-04T12:43:09;35.30;99.90
12289;DHT22;6207;49.308;7.336;2022-08-04T12:45:48;35.50;99.90
12289;DHT22;6207;49.308;7.336;2022-08-04T12:48:17;36.20;99.90
12289;DHT22;6207;49.308;7.336;2022-08-04T12:50:53;36.10;99.90
12289;DHT22;6207;49.308;7.336;2022-08-04T12:53:40;36.20;99.90
12289;DHT22;6207;49.308;7.336;2022-08-04T12:56:24;36.70;99.90
12289;DHT22;6207;49.308;7.336;2022-08-04T12:58:53;36.60;99.90
12289;DHT22;6207;49.308;7.336;2022-08-04T13:01:26;36.20;99.90
12289;DHT22;6207;49.308;7.336;2022-08-04T13:04:29;35.90;99.90
12289;DHT22;6207;49.308;7.336;2022-08-04T13:07:04;35.80;99.90
12289;DHT22;6207;49.308;7.336;2022-08-04T13:09:33;35.90;99.90
12289;DHT22;6207;49.308;7.336;2022-08-04T13:12:14;36.20;99.90
12289;DHT22;6207;49.308;7.336;2022-08-04T13:14:43;36.40;99.90
12289;DHT22;6207;49.308;7.336;2022-08-04T13:17:13;36.00;99.90
12289;DHT22;6207;49.308;7.336;2022-08-04T13:19:46;36.10;99.90
12289;DHT22;6207;49.308;7.336;2022-08-04T13:22:28;36.30;99.90
12289;DHT22;6207;49.308;7.336;2022-08-04T13:24:57;36.40;99.90
12289;DHT22;6207;49.308;7.336;2022-08-04T13:27:44;36.10;99.90
12289;DHT22;6207;49.308;7.336;2022-08-04T13:30:21;36.10;99.90
12289;DHT22;6207;49.308;7.336;2022-08-04T13:32:54;36.20;99.90
12289;DHT22;6207;49.308;7.336;2022-08-04T13:35:24;36.00;99.90
12289;DHT22;6207;49.308;7.336;2022-08-04T13:38:14;36.00;99.90
12289;DHT22;6207;49.308;7.336;2022-08-04T13:40:43;36.10;99.90
12289;DHT22;6207;49.308;7.336;2022-08-04T13:43:26;36.40;99.90
12289;DHT22;6207;49.308;7.336;2022-08-04T13:46:25;36.60;99.90
12289;DHT22;6207;49.308;7.336;2022-08-04T13:49:01;36.70;99.90
12289;DHT22;6207;49.308;7.336;2022-08-04T13:51:51;36.80;99.90
12289;DHT22;6207;49.308;7.336;2022-08-04T13:54:25;36.20;99.90
12289;DHT22;6207;49.308;7.336;2022-08-04T13:56:59;36.10;99.90
12289;DHT22;6207;49.308;7.336;2022-08-04T13:59:34;35.80;99.90
12289;DHT22;6207;49.308;7.336;2022-08-04T14:02:06;35.70;99.90
12289;DHT22;6207;49.308;7.336;2022-08-04T14:04:50;35.80;99.90
12289;DHT22;6207;49.308;7.336;2022-08-04T14:07:24;36.20;99.90
12289;DHT22;6207;49.308;7.336;2022-08-04T14:09:53;36.10;99.90
12289;DHT22;6207;49.308;7.336;2022-08-04T14:12:30;36.40;99.90
12289;DHT22;6207;49.308;7.336;2022-08-04T14:15:40;36.30;99.90
12289;DHT22;6207;49.308;7.336;2022-08-04T14:18:29;36.20;99.90
12289;DHT22;6207;49.308;7.336;2022-08-04T14:23:28;36.60;99.90
12289;DHT22;6207;49.308;7.336;2022-08-04T14:25:59;36.40;99.90
12289;DHT22;6207;49.308;7.336;2022-08-04T14:28:27;36.20;99.90
12289;DHT22;6207;49.308;7.336;2022-08-04T14:31:17;35.80;99.90
12289;DHT22;6207;49.308;7.336;2022-08-04T14:33:46;35.50;99.90
12289;DHT22;6207;49.308;7.336;2022-08-04T14:36:39;35.60;99.90
12289;DHT22;6207;49.308;7.336;2022-08-04T14:39:42;35.60;99.90
12289;DHT22;6207;49.308;7.336;2022-08-04T14:42:43;35.50;99.90
12289;DHT22;6207;49.308;7.336;2022-08-04T14:48:10;36.30;99.90
12289;DHT22;6207;49.308;7.336;2022-08-04T14:50:42;36.40;99.90
12289;DHT22;6207;49.308;7.336;2022-08-04T14:53:15;36.60;99.90
12289;DHT22;6207;49.308;7.336;2022-08-04T14:55:45;36.60;99.90
12289;DHT22;6207;49.308;7.336;2022-08-04T14:58:28;36.20;99.90
12289;DHT22;6207;49.308;7.336;2022-08-04T15:01:07;36.00;99.90
12289;DHT22;6207;49.308;7.336;2022-08-04T15:03:42;35.90;99.90
12289;DHT22;6207;49.308;7.336;2022-08-04T15:06:18;35.80;99.90
12289;DHT22;6207;49.308;7.336;2022-08-04T15:08:50;35.70;99.90
12289;DHT22;6207;49.308;7.336;2022-08-04T15:11:17;35.40;99.90
12289;DHT22;6207;49.308;7.336;2022-08-04T15:13:50;35.40;99.90
12289;DHT22;6207;49.308;7.336;2022-08-04T15:16:17;35.80;99.90
12289;DHT22;6207;49.308;7.336;2022-08-04T15:18:44;36.20;99.90
12289;DHT22;6207;49.308;7.336;2022-08-04T15:21:16;36.40;99.90
12289;DHT22;6207;49.308;7.336;2022-08-04T15:23:43;36.40;99.90
12289;DHT22;6207;49.308;7.336;2022-08-04T15:26:12;36.30;99.90
12289;DHT22;6207;49.308;7.336;2022-08-04T15:28:46;36.00;99.90
12289;DHT22;6207;49.308;7.336;2022-08-04T15:31:15;36.00;99.90
12289;DHT22;6207;49.308;7.336;2022-08-04T15:34:03;35.60;99.90
12289;DHT22;6207;49.308;7.336;2022-08-04T15:36:47;35.60;99.90
12289;DHT22;6207;49.308;7.336;2022-08-04T15:39:47;36.00;99.90
12289;DHT22;6207;49.308;7.336;2022-08-04T15:45:19;35.70;99.90
12289;DHT22;6207;49.308;7.336;2022-08-04T15:50:33;35.70;99.90
12289;DHT22;6207;49.308;7.336;2022-08-04T15:53:02;35.60;99.90
12289;DHT22;6207;49.308;7.336;2022-08-04T15:55:41;35.70;99.90
12289;DHT22;6207;49.308;7.336;2022-08-04T15:58:14;35.70;99.90
12289;DHT22;6207;49.308;7.336;2022-08-04T16:16:44;35.40;99.90
12289;DHT22;6207;49.308;7.336;2022-08-04T16:21:53;35.50;99.90
12289;DHT22;6207;49.308;7.336;2022-08-04T16:24:20;35.50;99.90
12289;DHT22;6207;49.308;7.336;2022-08-04T16:26:50;35.40;99.90
12289;DHT22;6207;49.308;7.336;2022-08-04T16:34:46;35.50;99.90
12289;DHT22;6207;49.308;7.336;2022-08-04T16:37:41;35.40;99.90
12289;DHT22;6207;49.308;7.336;2022-08-04T16:40:31;35.40;99.90
12289;DHT22;6207;49.308;7.336;2022-08-04T16:43:09;35.20;99.90
12289;DHT22;6207;49.308;7.336;2022-08-04T16:46:03;35.20;99.90
12289;DHT22;6207;49.308;7.336;2022-08-04T16:48:32;35.10;99.90
12289;DHT22;6207;49.308;7.336;2022-08-04T16:51:06;35.00;99.90
12289;DHT22;6207;49.308;7.336;2022-08-04T16:53:38;34.90;99.90
12289;DHT22;6207;49.308;7.336;2022-08-04T16:56:27;34.90;99.90
12289;DHT22;6207;49.308;7.336;2022-08-04T16:58:55;34.70;99.90
12289;DHT22;6207;49.308;7.336;2022-08-04T17:01:22;34.60;99.90
12289;DHT22;6207;49.308;7.336;2022-08-04T17:04:00;34.60;99.90
12289;DHT22;6207;49.308;7.336;2022-08-04T17:06:42;34.50;99.90
12289;DHT22;6207;49.308;7.336;2022-08-04T17:09:14;34.40;99.90
12289;DHT22;6207;49.308;7.336;2022-08-04T17:11:43;34.40;99.90
12289;DHT22;6207;49.308;7.336;2022-08-04T17:14:10;34.30;99.90
12289;DHT22;6207;49.308;7.336;2022-08-04T17:16:39;34.50;99.90
12289;DHT22;6207;49.308;7.336;2022-08-04T17:19:08;34.60;99.90
12289;DHT22;6207;49.308;7.336;2022-08-04T17:22:10;34.60;99.90
12289;DHT22;6207;49.308;7.336;2022-08-04T17:24:38;34.50;99.90
12289;DHT22;6207;49.308;7.336;2022-08-04T17:27:07;34.70;99.90
12289;DHT22;6207;49.308;7.336;2022-08-04T17:29:54;34.70;99.90
12289;DHT22;6207;49.308;7.336;2022-08-04T17:32:22;34.70;99.90
12289;DHT22;6207;49.308;7.336;2022-08-04T17:34:53;34.60;99.90
12289;DHT22;6207;49.308;7.336;2022-08-04T17:37:22;34.60;99.90
12289;DHT22;6207;49.308;7.336;2022-08-04T17:40:14;34.60;99.90
12289;DHT22;6207;49.308;7.336;2022-08-04T17:42:49;34.60;99.90
12289;DHT22;6207;49.308;7.336;2022-08-04T17:45:17;34.50;99.90
12289;DHT22;6207;49.308;7.336;2022-08-04T17:48:17;34.30;99.90
12289;DHT22;6207;49.308;7.336;2022-08-04T17:50:50;34.10;99.90
12289;DHT22;6207;49.308;7.336;2022-08-04T17:53:31;34.10;99.90
12289;DHT22;6207;49.308;7.336;2022-08-04T17:56:37;33.90;99.90
12289;DHT22;6207;49.308;7.336;2022-08-04T17:59:21;33.50;99.90
12289;DHT22;6207;49.308;7.336;2022-08-04T18:02:09;33.20;99.90
12289;DHT22;6207;49.308;7.336;2022-08-04T18:07:48;33.10;99.90
12289;DHT22;6207;49.308;7.336;2022-08-04T18:10:39;32.90;99.90
12289;DHT22;6207;49.308;7.336;2022-08-04T18:13:25;32.90;99.90
12289;DHT22;6207;49.308;7.336;2022-08-04T18:16:02;32.80;99.90
12289;DHT22;6207;49.308;7.336;2022-08-04T18:18:29;32.70;99.90
12289;DHT22;6207;49.308;7.336;2022-08-04T18:21:00;32.70;99.90
12289;DHT22;6207;49.308;7.336;2022-08-04T18:23:33;32.50;99.90
12289;DHT22;6207;49.308;7.336;2022-08-04T18:26:16;32.40;99.90
12289;DHT22;6207;49.308;7.336;2022-08-04T18:28:43;32.30;99.90
12289;DHT22;6207;49.308;7.336;2022-08-04T18:31:10;32.20;99.90
12289;DHT22;6207;49.308;7.336;2022-08-04T18:33:42;32.10;99.90
12289;DHT22;6207;49.308;7.336;2022-08-04T18:36:22;31.90;99.90
12289;DHT22;6207;49.308;7.336;2022-08-04T18:39:06;31.70;99.90
12289;DHT22;6207;49.308;7.336;2022-08-04T18:41:40;31.50;99.90
12289;DHT22;6207;49.308;7.336;2022-08-04T18:44:30;31.40;99.90
12289;DHT22;6207;49.308;7.336;2022-08-04T18:46:58;31.20;99.90
12289;DHT22;6207;49.308;7.336;2022-08-04T18:49:54;30.90;99.90
12289;DHT22;6207;49.308;7.336;2022-08-04T18:52:46;30.70;99.90
12289;DHT22;6207;49.308;7.336;2022-08-04T18:55:28;30.60;99.90
12289;DHT22;6207;49.308;7.336;2022-08-04T19:01:12;30.30;99.90
12289;DHT22;6207;49.308;7.336;2022-08-04T19:03:41;29.90;99.90
12289;DHT22;6207;49.308;7.336;2022-08-04T19:06:14;29.80;99.90
12289;DHT22;6207;49.308;7.336;2022-08-04T19:08:41;29.70;99.90
12289;DHT22;6207;49.308;7.336;2022-08-04T19:11:11;29.70;99.90
12289;DHT22;6207;49.308;7.336;2022-08-04T19:14:00;29.60;99.90
12289;DHT22;6207;49.308;7.336;2022-08-04T19:16:29;29.50;99.90
12289;DHT22;6207;49.308;7.336;2022-08-04T19:19:01;29.40;99.90
12289;DHT22;6207;49.308;7.336;2022-08-04T19:21:31;29.20;99.90
12289;DHT22;6207;49.308;7.336;2022-08-04T19:28:03;28.90;99.90
12289;DHT22;6207;49.308;7.336;2022-08-04T19:30:43;28.60;99.90
12289;DHT22;6207;49.308;7.336;2022-08-04T19:33:11;28.50;99.90
12289;DHT22;6207;49.308;7.336;2022-08-04T19:35:38;28.50;99.90
12289;DHT22;6207;49.308;7.336;2022-08-04T19:38:16;28.30;99.90
12289;DHT22;6207;49.308;7.336;2022-08-04T19:40:44;28.30;99.90
12289;DHT22;6207;49.308;7.336;2022-08-04T19:43:18;28.20;99.90
12289;DHT22;6207;49.308;7.336;2022-08-04T19:45:49;28.20;99.90
12289;DHT22;6207;49.308;7.336;2022-08-04T19:48:16;28.10;99.90
12289;DHT22;6207;49.308;7.336;2022-08-04T19:50:46;27.90;99.90
12289;DHT22;6207;49.308;7.336;2022-08-04T19:53:13;27.80;99.90
12289;DHT22;6207;49.308;7.336;2022-08-04T19:55:46;27.70;99.90
12289;DHT22;6207;49.308;7.336;2022-08-04T19:58:16;27.70;99.90
12289;DHT22;6207;49.308;7.336;2022-08-04T20:00:43;27.70;99.90
12289;DHT22;6207;49.308;7.336;2022-08-04T20:03:17;27.60;99.90
12289;DHT22;6207;49.308;7.336;2022-08-04T20:05:46;27.50;99.90
12289;DHT22;6207;49.308;7.336;2022-08-04T20:08:25;27.40;99.90
12289;DHT22;6207;49.308;7.336;2022-08-04T20:10:53;27.40;99.90
12289;DHT22;6207;49.308;7.336;2022-08-04T20:13:21;27.40;99.90
12289;DHT22;6207;49.308;7.336;2022-08-04T20:15:51;27.50;99.90
12289;DHT22;6207;49.308;7.336;2022-08-04T20:18:27;27.50;99.90
12289;DHT22;6207;49.308;7.336;2022-08-04T20:21:14;27.50;99.90
12289;DHT22;6207;49.308;7.336;2022-08-04T20:23:50;27.50;99.90
12289;DHT22;6207;49.308;7.336;2022-08-04T20:26:18;27.60;99.90
12289;DHT22;6207;49.308;7.336;2022-08-04T20:28:45;27.60;99.90
12289;DHT22;6207;49.308;7.336;2022-08-04T20:31:19;27.70;99.90
12289;DHT22;6207;49.308;7.336;2022-08-04T20:33:47;27.80;99.90
12289;DHT22;6207;49.308;7.336;2022-08-04T20:36:20;27.70;99.90
12289;DHT22;6207;49.308;7.336;2022-08-04T20:38:50;27.60;99.90
12289;DHT22;6207;49.308;7.336;2022-08-04T20:41:21;27.70;99.90
12289;DHT22;6207;49.308;7.336;2022-08-04T20:43:48;27.60;99.90
12289;DHT22;6207;49.308;7.336;2022-08-04T20:46:17;27.70;99.90
12289;DHT22;6207;49.308;7.336;2022-08-04T20:48:57;27.60;99.90
12289;DHT22;6207;49.308;7.336;2022-08-04T20:51:24;27.70;99.90
12289;DHT22;6207;49.308;7.336;2022-08-04T20:54:00;27.80;99.90
12289;DHT22;6207;49.308;7.336;2022-08-04T20:56:27;27.70;99.90
12289;DHT22;6207;49.308;7.336;2022-08-04T20:59:00;27.70;99.90
12289;DHT22;6207;49.308;7.336;2022-08-04T21:01:33;27.60;99.90
12289;DHT22;6207;49.308;7.336;2022-08-04T21:04:00;27.50;99.90
12289;DHT22;6207;49.308;7.336;2022-08-04T21:06:55;27.30;99.90
12289;DHT22;6207;49.308;7.336;2022-08-04T21:09:43;27.10;99.90
12289;DHT22;6207;49.308;7.336;2022-08-04T21:12:17;26.90;99.90
12289;DHT22;6207;49.308;7.336;2022-08-04T21:14:55;26.70;99.90
12289;DHT22;6207;49.308;7.336;2022-08-04T21:17:23;26.60;99.90
12289;DHT22;6207;49.308;7.336;2022-08-04T21:20:10;26.50;99.90
12289;DHT22;6207;49.308;7.336;2022-08-04T21:22:38;26.40;99.90
12289;DHT22;6207;49.308;7.336;2022-08-04T21:25:06;26.20;99.90